Flight Track Log - Related Links

Times and Time Zones

All times are in EDT time to prevent confusion due to time zone crossing. See the UCA3597 flight status page for this flight to view local times or setup timezone preferences in your user account.

Time Position Orientation Groundspeed Altitude Reporting Facility
EDT Latitude Longitude Course Direction KTS MPH feet Rate Location/Type
Wed 03:15:00 PM 41.0451 -74.3336 342° North  Level FlightAware Approximate
Wed 03:16:00 PM 41.0768 -74.3472 342° North  Level FlightAware Approximate
Wed 03:17:00 PM 41.1083 -74.3611 342° North  Level FlightAware Approximate
Wed 03:18:00 PM 41.1399 -74.3751 342° North  Level FlightAware Approximate
Wed 03:19:00 PM 41.1714 -74.3891 342° North  Level FlightAware Approximate
Wed 03:20:00 PM 41.2029 -74.4031 341° North  Level FlightAware Approximate
Wed 03:21:00 PM 41.2343 -74.4176 323° Northwest  Level FlightAware Approximate
Wed 03:22:00 PM 41.2627 -74.4397 339° North  Level FlightAware Approximate
Wed 03:23:00 PM 41.2990 -74.4973 312° West  Level Estimated
Wed 03:24:00 PM 41.3125 -74.5702 284° West  Level FlightAware Approximate
Wed 03:25:00 PM 41.3259 -74.6432 284° West  Level FlightAware Approximate
Wed 03:26:00 PM 41.3559 -74.7126 316° Northwest  Level FlightAware Approximate
Wed 03:27:00 PM 41.3963 -74.7650 316° Northwest  Level FlightAware Approximate
Wed 03:28:00 PM 41.4367 -74.8176 316° Northwest  Level FlightAware Approximate
Wed 03:29:00 PM 41.4814 -74.8647 322° Northwest  Level FlightAware Approximate
Wed 03:30:00 PM 41.5161 -74.9250 311° West  Level FlightAware Approximate
Wed 03:31:00 PM 41.5533 -74.9827 311° West  Level FlightAware Approximate
Wed 03:32:00 PM 41.5905 -75.0405 311° West  Level FlightAware Approximate
Wed 03:33:00 PM 41.6276 -75.0983 311° West  Level FlightAware Approximate
Wed 03:34:00 PM 41.6650 -75.1558 312° West  Level FlightAware Approximate
Wed 03:35:00 PM 41.7027 -75.2124 312° West  Level FlightAware Approximate
Wed 03:36:00 PM 41.7328 -75.2725 314° West  Level FlightAware Approximate
Wed 03:37:00 PM 41.7720 -75.3272 314° West  Level FlightAware Approximate
Wed 03:38:00 PM 41.8112 -75.3821 314° West  Level FlightAware Approximate
Wed 03:39:00 PM 41.8503 -75.4370 314° West  Level FlightAware Approximate
Wed 03:40:00 PM 41.8887 -75.4928 308° West  Level FlightAware Approximate
Wed 03:41:00 PM 41.9232 -75.5531 308° West  Level FlightAware Approximate
Wed 03:42:00 PM 41.9602 -75.6102 323° Northwest  Level FlightAware Approximate
Wed 03:43:00 PM 42.0008 -75.6624 309° West  Level FlightAware Approximate
Wed 03:44:00 PM 42.0364 -75.7217 309° West  Level FlightAware Approximate
Wed 03:45:00 PM 42.0720 -75.7810 309° West  Level FlightAware Approximate
Wed 03:46:00 PM 42.1091 -75.8386 312° West  Level FlightAware Approximate
Wed 03:47:00 PM 42.1545 -75.8878 324° Northwest  Level FlightAware Approximate
Wed 03:48:00 PM 42.2014 -75.9346 323° Northwest  Level FlightAware Approximate
Wed 03:49:00 PM 42.2084 -75.9796 323° Northwest  Level Estimated
Wed 03:50:00 PM 42.2084 -75.9796 North  Level Estimated
Wed 03:51:00 PM 42.2084 -75.9796 North  Level Estimated
Wed 03:52:00 PM 42.2084 -75.9796 North  Level Estimated
Wed 03:53:00 PM 42.2084 -75.9796 North  Level Estimated
Wed 03:54:00 PM 42.2084 -75.9796 North  Level Estimated
Wed 03:55:00 PM 42.2084 -75.9796 North  Level Estimated
Wed 03:56:00 PM 42.2084 -75.9796 North  Level Estimated
Wed 03:57:00 PM 42.2084 -75.9796 North  Level Estimated

Login

Don't have an account? Register now (free) for customized features, flight alerts, and more!